sensor_id;sensor_type;location;lat;lon;timestamp;P1;durP1;ratioP1;P2;durP2;ratioP2
31594;SDS011;18200;48.726;8.892;2022-10-16T00:01:09;4.53;;;1.20;;
31594;SDS011;18200;48.726;8.892;2022-10-16T00:05:11;1.75;;;1.02;;
31594;SDS011;18200;48.726;8.892;2022-10-16T00:09:12;5.68;;;1.30;;
31594;SDS011;18200;48.726;8.892;2022-10-16T00:13:12;3.25;;;1.20;;
31594;SDS011;18200;48.726;8.892;2022-10-16T00:17:12;4.50;;;1.40;;
31594;SDS011;18200;48.726;8.892;2022-10-16T00:21:14;1.85;;;1.23;;
31594;SDS011;18200;48.726;8.892;2022-10-16T00:25:17;5.00;;;1.40;;
31594;SDS011;18200;48.726;8.892;2022-10-16T00:29:17;1.95;;;1.52;;
31594;SDS011;18200;48.726;8.892;2022-10-16T00:33:18;3.58;;;1.73;;
31594;SDS011;18200;48.726;8.892;2022-10-16T00:37:18;2.55;;;1.55;;
31594;SDS011;18200;48.726;8.892;2022-10-16T00:41:19;6.65;;;1.90;;
31594;SDS011;18200;48.726;8.892;2022-10-16T00:45:19;3.85;;;1.65;;
31594;SDS011;18200;48.726;8.892;2022-10-16T00:49:19;4.20;;;1.70;;
31594;SDS011;18200;48.726;8.892;2022-10-16T00:53:20;6.22;;;2.25;;
31594;SDS011;18200;48.726;8.892;2022-10-16T00:57:21;4.70;;;1.85;;
31594;SDS011;18200;48.726;8.892;2022-10-16T01:01:22;3.38;;;1.73;;
31594;SDS011;18200;48.726;8.892;2022-10-16T01:05:23;3.22;;;1.50;;
31594;SDS011;18200;48.726;8.892;2022-10-16T01:09:44;2.20;;;1.40;;
31594;SDS011;18200;48.726;8.892;2022-10-16T01:13:56;4.68;;;1.80;;
31594;SDS011;18200;48.726;8.892;2022-10-16T01:18:16;2.65;;;1.65;;
31594;SDS011;18200;48.726;8.892;2022-10-16T01:22:24;6.53;;;1.58;;
31594;SDS011;18200;48.726;8.892;2022-10-16T01:30:42;2.30;;;1.70;;
31594;SDS011;18200;48.726;8.892;2022-10-16T01:34:49;4.75;;;1.92;;
31594;SDS011;18200;48.726;8.892;2022-10-16T01:38:52;3.35;;;1.77;;
31594;SDS011;18200;48.726;8.892;2022-10-16T01:43:22;3.65;;;1.42;;
31594;SDS011;18200;48.726;8.892;2022-10-16T01:47:25;3.10;;;1.58;;
31594;SDS011;18200;48.726;8.892;2022-10-16T01:51:27;6.40;;;1.73;;
31594;SDS011;18200;48.726;8.892;2022-10-16T01:55:30;4.75;;;1.70;;
31594;SDS011;18200;48.726;8.892;2022-10-16T01:59:37;2.45;;;1.80;;
31594;SDS011;18200;48.726;8.892;2022-10-16T02:03:42;3.55;;;1.70;;
31594;SDS011;18200;48.726;8.892;2022-10-16T02:07:44;4.03;;;2.00;;
31594;SDS011;18200;48.726;8.892;2022-10-16T02:11:44;6.20;;;1.90;;
31594;SDS011;18200;48.726;8.892;2022-10-16T02:15:45;5.00;;;1.75;;
31594;SDS011;18200;48.726;8.892;2022-10-16T02:19:46;2.15;;;1.45;;
31594;SDS011;18200;48.726;8.892;2022-10-16T02:23:51;6.72;;;1.55;;
31594;SDS011;18200;48.726;8.892;2022-10-16T02:28:10;3.55;;;1.42;;
31594;SDS011;18200;48.726;8.892;2022-10-16T02:32:19;5.18;;;1.88;;
31594;SDS011;18200;48.726;8.892;2022-10-16T02:36:23;4.88;;;1.80;;
31594;SDS011;18200;48.726;8.892;2022-10-16T02:40:24;3.58;;;1.83;;
31594;SDS011;18200;48.726;8.892;2022-10-16T02:44:26;4.20;;;1.60;;
31594;SDS011;18200;48.726;8.892;2022-10-16T02:48:26;3.08;;;1.50;;
31594;SDS011;18200;48.726;8.892;2022-10-16T02:52:27;3.88;;;1.60;;
31594;SDS011;18200;48.726;8.892;2022-10-16T02:56:27;2.10;;;1.45;;
31594;SDS011;18200;48.726;8.892;2022-10-16T03:00:27;2.55;;;1.30;;
31594;SDS011;18200;48.726;8.892;2022-10-16T03:04:28;2.53;;;1.63;;
31594;SDS011;18200;48.726;8.892;2022-10-16T03:08:29;3.88;;;1.85;;
31594;SDS011;18200;48.726;8.892;2022-10-16T03:12:29;9.18;;;1.60;;
31594;SDS011;18200;48.726;8.892;2022-10-16T03:16:31;8.80;;;2.00;;
31594;SDS011;18200;48.726;8.892;2022-10-16T03:20:31;6.10;;;3.72;;
31594;SDS011;18200;48.726;8.892;2022-10-16T03:24:31;7.45;;;6.35;;
31594;SDS011;18200;48.726;8.892;2022-10-16T03:28:32;9.88;;;8.70;;
31594;SDS011;18200;48.726;8.892;2022-10-16T03:32:32;4.88;;;4.40;;
31594;SDS011;18200;48.726;8.892;2022-10-16T03:36:33;4.07;;;2.97;;
31594;SDS011;18200;48.726;8.892;2022-10-16T03:40:33;6.65;;;2.30;;
31594;SDS011;18200;48.726;8.892;2022-10-16T03:44:33;7.25;;;2.53;;
31594;SDS011;18200;48.726;8.892;2022-10-16T03:48:34;3.80;;;2.20;;
31594;SDS011;18200;48.726;8.892;2022-10-16T03:52:34;2.78;;;2.40;;
31594;SDS011;18200;48.726;8.892;2022-10-16T03:56:35;13.02;;;4.45;;
31594;SDS011;18200;48.726;8.892;2022-10-16T04:00:35;13.85;;;3.78;;
31594;SDS011;18200;48.726;8.892;2022-10-16T04:04:36;5.53;;;2.95;;
31594;SDS011;18200;48.726;8.892;2022-10-16T04:08:36;5.40;;;2.75;;
31594;SDS011;18200;48.726;8.892;2022-10-16T04:12:37;4.10;;;2.22;;
31594;SDS011;18200;48.726;8.892;2022-10-16T04:16:37;4.38;;;1.90;;
31594;SDS011;18200;48.726;8.892;2022-10-16T04:20:37;5.70;;;2.65;;
31594;SDS011;18200;48.726;8.892;2022-10-16T04:24:38;10.57;;;2.35;;
31594;SDS011;18200;48.726;8.892;2022-10-16T04:28:38;1.85;;;1.70;;
31594;SDS011;18200;48.726;8.892;2022-10-16T04:32:39;3.35;;;2.17;;
31594;SDS011;18200;48.726;8.892;2022-10-16T04:36:40;4.50;;;2.65;;
31594;SDS011;18200;48.726;8.892;2022-10-16T04:40:41;3.75;;;2.35;;
31594;SDS011;18200;48.726;8.892;2022-10-16T04:44:42;3.13;;;2.03;;
31594;SDS011;18200;48.726;8.892;2022-10-16T04:48:42;2.78;;;1.90;;
31594;SDS011;18200;48.726;8.892;2022-10-16T04:52:43;7.20;;;2.42;;
31594;SDS011;18200;48.726;8.892;2022-10-16T04:56:43;3.28;;;1.88;;
31594;SDS011;18200;48.726;8.892;2022-10-16T05:00:47;6.67;;;2.70;;
31594;SDS011;18200;48.726;8.892;2022-10-16T05:04:47;7.22;;;3.70;;
31594;SDS011;18200;48.726;8.892;2022-10-16T05:08:47;3.70;;;2.60;;
31594;SDS011;18200;48.726;8.892;2022-10-16T05:12:48;5.43;;;2.40;;
31594;SDS011;18200;48.726;8.892;2022-10-16T05:16:48;4.00;;;2.08;;
31594;SDS011;18200;48.726;8.892;2022-10-16T05:20:49;10.07;;;2.65;;
31594;SDS011;18200;48.726;8.892;2022-10-16T05:24:49;6.43;;;1.88;;
31594;SDS011;18200;48.726;8.892;2022-10-16T05:28:50;7.28;;;2.15;;
31594;SDS011;18200;48.726;8.892;2022-10-16T05:32:51;4.78;;;1.73;;
31594;SDS011;18200;48.726;8.892;2022-10-16T05:36:51;2.88;;;1.83;;
31594;SDS011;18200;48.726;8.892;2022-10-16T05:40:52;3.58;;;1.75;;
31594;SDS011;18200;48.726;8.892;2022-10-16T05:44:53;4.22;;;2.30;;
31594;SDS011;18200;48.726;8.892;2022-10-16T05:48:53;4.60;;;2.00;;
31594;SDS011;18200;48.726;8.892;2022-10-16T05:52:53;4.18;;;1.80;;
31594;SDS011;18200;48.726;8.892;2022-10-16T05:56:54;8.57;;;2.78;;
31594;SDS011;18200;48.726;8.892;2022-10-16T06:00:55;3.67;;;2.10;;
31594;SDS011;18200;48.726;8.892;2022-10-16T06:04:56;4.07;;;1.85;;
31594;SDS011;18200;48.726;8.892;2022-10-16T06:08:57;6.55;;;3.13;;
31594;SDS011;18200;48.726;8.892;2022-10-16T06:12:57;10.77;;;4.53;;
31594;SDS011;18200;48.726;8.892;2022-10-16T06:16:58;5.95;;;2.50;;
31594;SDS011;18200;48.726;8.892;2022-10-16T06:20:58;6.80;;;3.47;;
31594;SDS011;18200;48.726;8.892;2022-10-16T06:24:59;5.38;;;2.20;;
31594;SDS011;18200;48.726;8.892;2022-10-16T06:28:59;6.97;;;2.40;;
31594;SDS011;18200;48.726;8.892;2022-10-16T06:33:00;4.20;;;2.22;;
31594;SDS011;18200;48.726;8.892;2022-10-16T06:37:00;4.28;;;2.60;;
31594;SDS011;18200;48.726;8.892;2022-10-16T06:41:01;4.18;;;2.50;;
31594;SDS011;18200;48.726;8.892;2022-10-16T06:45:01;4.72;;;2.10;;
31594;SDS011;18200;48.726;8.892;2022-10-16T06:49:01;2.80;;;1.95;;
31594;SDS011;18200;48.726;8.892;2022-10-16T06:53:02;7.28;;;2.53;;
31594;SDS011;18200;48.726;8.892;2022-10-16T06:57:02;4.35;;;2.60;;
31594;SDS011;18200;48.726;8.892;2022-10-16T07:01:03;2.70;;;2.15;;
31594;SDS011;18200;48.726;8.892;2022-10-16T07:05:04;4.07;;;2.50;;
31594;SDS011;18200;48.726;8.892;2022-10-16T07:09:06;5.47;;;2.72;;
31594;SDS011;18200;48.726;8.892;2022-10-16T07:13:09;3.42;;;2.58;;
31594;SDS011;18200;48.726;8.892;2022-10-16T07:17:13;5.40;;;2.60;;
31594;SDS011;18200;48.726;8.892;2022-10-16T07:21:14;4.95;;;2.60;;
31594;SDS011;18200;48.726;8.892;2022-10-16T07:25:16;5.63;;;2.72;;
31594;SDS011;18200;48.726;8.892;2022-10-16T07:29:18;6.35;;;2.35;;
31594;SDS011;18200;48.726;8.892;2022-10-16T07:33:20;4.10;;;1.70;;
31594;SDS011;18200;48.726;8.892;2022-10-16T07:37:21;6.55;;;2.33;;
31594;SDS011;18200;48.726;8.892;2022-10-16T07:41:22;5.32;;;2.58;;
31594;SDS011;18200;48.726;8.892;2022-10-16T07:45:22;3.78;;;1.73;;
31594;SDS011;18200;48.726;8.892;2022-10-16T07:49:23;6.13;;;1.73;;
31594;SDS011;18200;48.726;8.892;2022-10-16T07:53:23;5.95;;;2.33;;
31594;SDS011;18200;48.726;8.892;2022-10-16T07:57:23;3.85;;;2.28;;
31594;SDS011;18200;48.726;8.892;2022-10-16T08:01:24;4.90;;;2.40;;
31594;SDS011;18200;48.726;8.892;2022-10-16T08:05:24;6.65;;;2.50;;
31594;SDS011;18200;48.726;8.892;2022-10-16T08:09:24;4.32;;;2.28;;
31594;SDS011;18200;48.726;8.892;2022-10-16T08:13:25;5.93;;;2.38;;
31594;SDS011;18200;48.726;8.892;2022-10-16T08:17:26;6.20;;;3.00;;
31594;SDS011;18200;48.726;8.892;2022-10-16T08:21:26;4.00;;;2.35;;
31594;SDS011;18200;48.726;8.892;2022-10-16T08:25:27;5.88;;;2.75;;
31594;SDS011;18200;48.726;8.892;2022-10-16T08:29:28;2.70;;;1.65;;
31594;SDS011;18200;48.726;8.892;2022-10-16T08:33:28;4.13;;;2.00;;
31594;SDS011;18200;48.726;8.892;2022-10-16T08:37:29;6.75;;;2.00;;
31594;SDS011;18200;48.726;8.892;2022-10-16T08:45:37;9.77;;;2.10;;
31594;SDS011;18200;48.726;8.892;2022-10-16T08:49:50;4.38;;;2.00;;
31594;SDS011;18200;48.726;8.892;2022-10-16T08:54:28;7.88;;;2.20;;
31594;SDS011;18200;48.726;8.892;2022-10-16T08:58:34;5.47;;;2.58;;
31594;SDS011;18200;48.726;8.892;2022-10-16T09:02:37;9.55;;;2.30;;
31594;SDS011;18200;48.726;8.892;2022-10-16T09:06:49;4.45;;;2.17;;
31594;SDS011;18200;48.726;8.892;2022-10-16T09:10:59;5.68;;;2.35;;
31594;SDS011;18200;48.726;8.892;2022-10-16T09:19:34;9.13;;;2.33;;
31594;SDS011;18200;48.726;8.892;2022-10-16T09:23:42;4.22;;;2.85;;
31594;SDS011;18200;48.726;8.892;2022-10-16T09:27:44;7.70;;;3.15;;
31594;SDS011;18200;48.726;8.892;2022-10-16T09:31:47;4.97;;;2.60;;
31594;SDS011;18200;48.726;8.892;2022-10-16T09:35:51;5.45;;;2.25;;
31594;SDS011;18200;48.726;8.892;2022-10-16T09:39:54;8.18;;;2.17;;
31594;SDS011;18200;48.726;8.892;2022-10-16T09:43:56;5.75;;;1.67;;
31594;SDS011;18200;48.726;8.892;2022-10-16T09:48:00;3.88;;;2.28;;
31594;SDS011;18200;48.726;8.892;2022-10-16T09:52:13;4.15;;;2.10;;
31594;SDS011;18200;48.726;8.892;2022-10-16T09:56:22;3.30;;;1.77;;
31594;SDS011;18200;48.726;8.892;2022-10-16T10:00:32;4.45;;;1.75;;
31594;SDS011;18200;48.726;8.892;2022-10-16T10:04:40;2.55;;;1.63;;
31594;SDS011;18200;48.726;8.892;2022-10-16T10:08:56;3.97;;;1.58;;
31594;SDS011;18200;48.726;8.892;2022-10-16T10:13:02;11.73;;;1.95;;
31594;SDS011;18200;48.726;8.892;2022-10-16T10:21:12;4.83;;;1.70;;
31594;SDS011;18200;48.726;8.892;2022-10-16T10:25:18;4.13;;;1.35;;
31594;SDS011;18200;48.726;8.892;2022-10-16T10:29:36;8.20;;;1.90;;
31594;SDS011;18200;48.726;8.892;2022-10-16T10:38:27;1.75;;;1.30;;
31594;SDS011;18200;48.726;8.892;2022-10-16T10:42:57;3.10;;;1.50;;
31594;SDS011;18200;48.726;8.892;2022-10-16T10:51:08;4.40;;;1.35;;
31594;SDS011;18200;48.726;8.892;2022-10-16T11:12:36;7.10;;;2.33;;
31594;SDS011;18200;48.726;8.892;2022-10-16T11:16:53;5.50;;;2.55;;
31594;SDS011;18200;48.726;8.892;2022-10-16T11:21:00;4.60;;;2.30;;
31594;SDS011;18200;48.726;8.892;2022-10-16T11:29:27;3.17;;;1.52;;
31594;SDS011;18200;48.726;8.892;2022-10-16T11:33:39;7.20;;;1.85;;
31594;SDS011;18200;48.726;8.892;2022-10-16T11:37:44;2.35;;;1.15;;
31594;SDS011;18200;48.726;8.892;2022-10-16T11:41:52;8.68;;;1.63;;
31594;SDS011;18200;48.726;8.892;2022-10-16T11:45:57;1.48;;;1.10;;
31594;SDS011;18200;48.726;8.892;2022-10-16T11:50:48;1.55;;;1.40;;
31594;SDS011;18200;48.726;8.892;2022-10-16T11:58:57;2.25;;;1.20;;
31594;SDS011;18200;48.726;8.892;2022-10-16T12:07:07;3.20;;;1.10;;
31594;SDS011;18200;48.726;8.892;2022-10-16T12:11:30;6.13;;;1.60;;
31594;SDS011;18200;48.726;8.892;2022-10-16T12:15:36;4.10;;;1.30;;
31594;SDS011;18200;48.726;8.892;2022-10-16T12:19:37;3.92;;;1.40;;
31594;SDS011;18200;48.726;8.892;2022-10-16T12:23:38;3.85;;;1.60;;
31594;SDS011;18200;48.726;8.892;2022-10-16T12:27:52;2.83;;;1.50;;
31594;SDS011;18200;48.726;8.892;2022-10-16T12:31:55;3.92;;;1.33;;
31594;SDS011;18200;48.726;8.892;2022-10-16T12:35:55;4.43;;;1.48;;
31594;SDS011;18200;48.726;8.892;2022-10-16T12:39:58;1.55;;;1.40;;
31594;SDS011;18200;48.726;8.892;2022-10-16T12:44:00;6.25;;;2.05;;
31594;SDS011;18200;48.726;8.892;2022-10-16T12:48:04;3.08;;;1.60;;
31594;SDS011;18200;48.726;8.892;2022-10-16T12:52:25;4.55;;;1.92;;
31594;SDS011;18200;48.726;8.892;2022-10-16T13:14:43;5.32;;;1.92;;
31594;SDS011;18200;48.726;8.892;2022-10-16T13:23:17;3.08;;;1.88;;
31594;SDS011;18200;48.726;8.892;2022-10-16T13:27:49;5.25;;;2.17;;
31594;SDS011;18200;48.726;8.892;2022-10-16T13:32:07;4.25;;;2.20;;
31594;SDS011;18200;48.726;8.892;2022-10-16T13:36:19;2.15;;;1.90;;
31594;SDS011;18200;48.726;8.892;2022-10-16T13:40:22;4.75;;;2.05;;
31594;SDS011;18200;48.726;8.892;2022-10-16T13:44:24;4.72;;;2.20;;
31594;SDS011;18200;48.726;8.892;2022-10-16T13:48:24;4.47;;;1.90;;
31594;SDS011;18200;48.726;8.892;2022-10-16T13:52:25;4.65;;;2.58;;
31594;SDS011;18200;48.726;8.892;2022-10-16T13:56:27;5.32;;;2.10;;
31594;SDS011;18200;48.726;8.892;2022-10-16T14:00:29;6.37;;;2.93;;
31594;SDS011;18200;48.726;8.892;2022-10-16T14:04:32;3.85;;;1.88;;
31594;SDS011;18200;48.726;8.892;2022-10-16T14:08:33;3.15;;;1.80;;
31594;SDS011;18200;48.726;8.892;2022-10-16T14:12:33;4.70;;;2.10;;
31594;SDS011;18200;48.726;8.892;2022-10-16T14:16:34;4.88;;;2.20;;
31594;SDS011;18200;48.726;8.892;2022-10-16T14:20:34;3.60;;;2.08;;
31594;SDS011;18200;48.726;8.892;2022-10-16T14:24:35;7.40;;;2.03;;
31594;SDS011;18200;48.726;8.892;2022-10-16T14:28:36;6.22;;;2.58;;
31594;SDS011;18200;48.726;8.892;2022-10-16T14:32:39;5.78;;;2.33;;
31594;SDS011;18200;48.726;8.892;2022-10-16T14:36:41;6.70;;;2.05;;
31594;SDS011;18200;48.726;8.892;2022-10-16T14:40:45;4.90;;;2.08;;
31594;SDS011;18200;48.726;8.892;2022-10-16T14:44:48;3.85;;;2.50;;
31594;SDS011;18200;48.726;8.892;2022-10-16T14:48:50;9.40;;;2.42;;
31594;SDS011;18200;48.726;8.892;2022-10-16T14:53:00;5.32;;;2.10;;
31594;SDS011;18200;48.726;8.892;2022-10-16T14:57:01;9.43;;;4.35;;
31594;SDS011;18200;48.726;8.892;2022-10-16T15:01:01;6.03;;;4.32;;
31594;SDS011;18200;48.726;8.892;2022-10-16T15:05:07;3.45;;;2.47;;
31594;SDS011;18200;48.726;8.892;2022-10-16T15:09:13;9.75;;;4.70;;
31594;SDS011;18200;48.726;8.892;2022-10-16T15:13:13;8.13;;;5.82;;
31594;SDS011;18200;48.726;8.892;2022-10-16T15:17:14;8.65;;;3.80;;
31594;SDS011;18200;48.726;8.892;2022-10-16T15:21:20;4.93;;;2.35;;
31594;SDS011;18200;48.726;8.892;2022-10-16T15:25:37;7.30;;;2.20;;
31594;SDS011;18200;48.726;8.892;2022-10-16T15:29:39;7.00;;;2.28;;
31594;SDS011;18200;48.726;8.892;2022-10-16T15:33:40;4.25;;;2.60;;
31594;SDS011;18200;48.726;8.892;2022-10-16T15:37:40;5.20;;;2.83;;
31594;SDS011;18200;48.726;8.892;2022-10-16T15:41:40;4.93;;;2.58;;
31594;SDS011;18200;48.726;8.892;2022-10-16T15:45:42;19.75;;;2.90;;
31594;SDS011;18200;48.726;8.892;2022-10-16T15:49:42;5.22;;;2.92;;
31594;SDS011;18200;48.726;8.892;2022-10-16T15:53:42;4.30;;;2.42;;
31594;SDS011;18200;48.726;8.892;2022-10-16T15:57:43;5.97;;;2.60;;
31594;SDS011;18200;48.726;8.892;2022-10-16T16:01:43;5.07;;;2.45;;
31594;SDS011;18200;48.726;8.892;2022-10-16T16:05:44;10.48;;;2.67;;
31594;SDS011;18200;48.726;8.892;2022-10-16T16:09:44;6.70;;;3.00;;
31594;SDS011;18200;48.726;8.892;2022-10-16T16:13:45;9.82;;;2.50;;
31594;SDS011;18200;48.726;8.892;2022-10-16T16:17:46;6.63;;;3.00;;
31594;SDS011;18200;48.726;8.892;2022-10-16T16:21:47;13.20;;;2.58;;
31594;SDS011;18200;48.726;8.892;2022-10-16T16:26:04;11.77;;;5.05;;
31594;SDS011;18200;48.726;8.892;2022-10-16T16:30:06;5.68;;;3.60;;
31594;SDS011;18200;48.726;8.892;2022-10-16T16:34:07;9.57;;;2.92;;
31594;SDS011;18200;48.726;8.892;2022-10-16T16:38:08;6.53;;;3.03;;
31594;SDS011;18200;48.726;8.892;2022-10-16T16:42:09;7.45;;;3.35;;
31594;SDS011;18200;48.726;8.892;2022-10-16T16:46:10;11.32;;;2.78;;
31594;SDS011;18200;48.726;8.892;2022-10-16T16:50:10;6.85;;;2.65;;
31594;SDS011;18200;48.726;8.892;2022-10-16T16:54:11;8.57;;;3.60;;
31594;SDS011;18200;48.726;8.892;2022-10-16T16:58:12;19.75;;;3.80;;
31594;SDS011;18200;48.726;8.892;2022-10-16T17:02:13;12.60;;;3.80;;
31594;SDS011;18200;48.726;8.892;2022-10-16T17:06:13;10.73;;;3.22;;
31594;SDS011;18200;48.726;8.892;2022-10-16T17:10:16;7.07;;;3.78;;
31594;SDS011;18200;48.726;8.892;2022-10-16T17:14:17;10.00;;;4.32;;
31594;SDS011;18200;48.726;8.892;2022-10-16T17:18:17;9.10;;;4.43;;
31594;SDS011;18200;48.726;8.892;2022-10-16T17:22:18;11.52;;;4.47;;
31594;SDS011;18200;48.726;8.892;2022-10-16T17:26:19;6.30;;;3.67;;
31594;SDS011;18200;48.726;8.892;2022-10-16T17:30:20;12.80;;;5.70;;
31594;SDS011;18200;48.726;8.892;2022-10-16T17:34:20;12.23;;;4.88;;
31594;SDS011;18200;48.726;8.892;2022-10-16T17:38:20;12.95;;;7.70;;
31594;SDS011;18200;48.726;8.892;2022-10-16T17:42:21;18.67;;;9.95;;
31594;SDS011;18200;48.726;8.892;2022-10-16T17:46:22;14.45;;;5.75;;
31594;SDS011;18200;48.726;8.892;2022-10-16T17:50:25;18.00;;;8.10;;
31594;SDS011;18200;48.726;8.892;2022-10-16T17:54:26;9.20;;;4.50;;
31594;SDS011;18200;48.726;8.892;2022-10-16T17:58:26;5.32;;;4.38;;
31594;SDS011;18200;48.726;8.892;2022-10-16T18:02:27;7.47;;;4.30;;
31594;SDS011;18200;48.726;8.892;2022-10-16T18:06:28;12.90;;;4.57;;
31594;SDS011;18200;48.726;8.892;2022-10-16T18:10:30;9.27;;;3.63;;
31594;SDS011;18200;48.726;8.892;2022-10-16T18:14:30;10.77;;;5.30;;
31594;SDS011;18200;48.726;8.892;2022-10-16T18:18:31;13.00;;;6.53;;
31594;SDS011;18200;48.726;8.892;2022-10-16T18:22:32;12.85;;;5.50;;
31594;SDS011;18200;48.726;8.892;2022-10-16T18:26:35;13.25;;;4.88;;
31594;SDS011;18200;48.726;8.892;2022-10-16T18:30:35;9.52;;;5.43;;
31594;SDS011;18200;48.726;8.892;2022-10-16T18:34:35;13.18;;;5.05;;
31594;SDS011;18200;48.726;8.892;2022-10-16T18:38:36;13.93;;;5.13;;
31594;SDS011;18200;48.726;8.892;2022-10-16T18:42:37;12.23;;;6.38;;
31594;SDS011;18200;48.726;8.892;2022-10-16T18:46:37;19.13;;;6.45;;
31594;SDS011;18200;48.726;8.892;2022-10-16T18:50:37;16.42;;;6.38;;
31594;SDS011;18200;48.726;8.892;2022-10-16T18:54:38;13.43;;;5.82;;
31594;SDS011;18200;48.726;8.892;2022-10-16T18:58:42;12.57;;;5.55;;
31594;SDS011;18200;48.726;8.892;2022-10-16T19:02:44;12.80;;;6.32;;
31594;SDS011;18200;48.726;8.892;2022-10-16T19:06:45;15.05;;;7.45;;
31594;SDS011;18200;48.726;8.892;2022-10-16T19:10:47;13.80;;;7.20;;
31594;SDS011;18200;48.726;8.892;2022-10-16T19:14:47;18.27;;;5.95;;
31594;SDS011;18200;48.726;8.892;2022-10-16T19:18:49;19.58;;;5.28;;
31594;SDS011;18200;48.726;8.892;2022-10-16T19:22:51;14.75;;;5.50;;
31594;SDS011;18200;48.726;8.892;2022-10-16T19:26:57;10.02;;;4.90;;
31594;SDS011;18200;48.726;8.892;2022-10-16T19:31:02;14.60;;;4.18;;
31594;SDS011;18200;48.726;8.892;2022-10-16T19:35:05;7.97;;;4.78;;
31594;SDS011;18200;48.726;8.892;2022-10-16T19:39:12;13.75;;;5.28;;
31594;SDS011;18200;48.726;8.892;2022-10-16T19:43:14;10.98;;;4.22;;
31594;SDS011;18200;48.726;8.892;2022-10-16T19:47:14;5.40;;;4.13;;
31594;SDS011;18200;48.726;8.892;2022-10-16T19:51:16;11.20;;;4.53;;
31594;SDS011;18200;48.726;8.892;2022-10-16T19:55:18;10.65;;;4.28;;
31594;SDS011;18200;48.726;8.892;2022-10-16T19:59:19;11.60;;;6.40;;
31594;SDS011;18200;48.726;8.892;2022-10-16T20:03:19;13.73;;;8.85;;
31594;SDS011;18200;48.726;8.892;2022-10-16T20:07:20;14.50;;;6.30;;
31594;SDS011;18200;48.726;8.892;2022-10-16T20:11:23;13.35;;;5.70;;
31594;SDS011;18200;48.726;8.892;2022-10-16T20:15:25;15.57;;;4.83;;
31594;SDS011;18200;48.726;8.892;2022-10-16T20:19:25;9.77;;;4.90;;
31594;SDS011;18200;48.726;8.892;2022-10-16T20:23:26;8.48;;;4.63;;
31594;SDS011;18200;48.726;8.892;2022-10-16T20:27:26;11.32;;;5.35;;
31594;SDS011;18200;48.726;8.892;2022-10-16T20:31:28;10.70;;;5.00;;
31594;SDS011;18200;48.726;8.892;2022-10-16T20:35:34;14.85;;;5.00;;
31594;SDS011;18200;48.726;8.892;2022-10-16T20:39:39;13.00;;;4.53;;
31594;SDS011;18200;48.726;8.892;2022-10-16T20:43:40;8.75;;;4.80;;
31594;SDS011;18200;48.726;8.892;2022-10-16T20:47:42;12.07;;;4.85;;
31594;SDS011;18200;48.726;8.892;2022-10-16T20:51:43;14.73;;;4.95;;
31594;SDS011;18200;48.726;8.892;2022-10-16T20:55:44;13.30;;;4.30;;
31594;SDS011;18200;48.726;8.892;2022-10-16T20:59:45;8.88;;;5.35;;
31594;SDS011;18200;48.726;8.892;2022-10-16T21:03:57;15.18;;;4.82;;
31594;SDS011;18200;48.726;8.892;2022-10-16T21:08:00;11.52;;;4.65;;
31594;SDS011;18200;48.726;8.892;2022-10-16T21:12:01;15.95;;;5.38;;
31594;SDS011;18200;48.726;8.892;2022-10-16T21:16:01;18.23;;;5.55;;
31594;SDS011;18200;48.726;8.892;2022-10-16T21:20:02;8.68;;;5.50;;
31594;SDS011;18200;48.726;8.892;2022-10-16T21:24:03;12.65;;;5.18;;
31594;SDS011;18200;48.726;8.892;2022-10-16T21:28:04;15.98;;;5.90;;
31594;SDS011;18200;48.726;8.892;2022-10-16T21:32:04;11.82;;;5.03;;
31594;SDS011;18200;48.726;8.892;2022-10-16T21:36:12;14.70;;;6.57;;
31594;SDS011;18200;48.726;8.892;2022-10-16T21:40:20;16.30;;;5.97;;
31594;SDS011;18200;48.726;8.892;2022-10-16T21:44:20;13.77;;;6.55;;
31594;SDS011;18200;48.726;8.892;2022-10-16T21:48:21;11.65;;;6.22;;
31594;SDS011;18200;48.726;8.892;2022-10-16T21:52:21;15.65;;;6.20;;
31594;SDS011;18200;48.726;8.892;2022-10-16T21:56:21;9.07;;;5.70;;
31594;SDS011;18200;48.726;8.892;2022-10-16T22:00:22;13.13;;;6.05;;
31594;SDS011;18200;48.726;8.892;2022-10-16T22:04:22;17.45;;;6.05;;
31594;SDS011;18200;48.726;8.892;2022-10-16T22:08:23;15.88;;;6.13;;
31594;SDS011;18200;48.726;8.892;2022-10-16T22:12:23;11.27;;;5.88;;
31594;SDS011;18200;48.726;8.892;2022-10-16T22:16:24;11.48;;;6.18;;
31594;SDS011;18200;48.726;8.892;2022-10-16T22:20:26;15.55;;;5.72;;
31594;SDS011;18200;48.726;8.892;2022-10-16T22:24:26;15.43;;;6.05;;
31594;SDS011;18200;48.726;8.892;2022-10-16T22:28:26;14.48;;;6.45;;
31594;SDS011;18200;48.726;8.892;2022-10-16T22:32:27;14.18;;;5.95;;
31594;SDS011;18200;48.726;8.892;2022-10-16T22:36:27;11.38;;;5.22;;
31594;SDS011;18200;48.726;8.892;2022-10-16T22:40:28;15.52;;;5.70;;
31594;SDS011;18200;48.726;8.892;2022-10-16T22:44:29;8.82;;;4.97;;
31594;SDS011;18200;48.726;8.892;2022-10-16T22:48:29;12.30;;;5.22;;
31594;SDS011;18200;48.726;8.892;2022-10-16T22:52:30;12.57;;;4.88;;
31594;SDS011;18200;48.726;8.892;2022-10-16T22:56:31;10.93;;;5.47;;
31594;SDS011;18200;48.726;8.892;2022-10-16T23:00:32;10.38;;;6.03;;
31594;SDS011;18200;48.726;8.892;2022-10-16T23:04:32;12.50;;;4.88;;
31594;SDS011;18200;48.726;8.892;2022-10-16T23:08:32;12.88;;;5.53;;
31594;SDS011;18200;48.726;8.892;2022-10-16T23:12:34;8.38;;;4.85;;
31594;SDS011;18200;48.726;8.892;2022-10-16T23:16:35;11.63;;;4.95;;
31594;SDS011;18200;48.726;8.892;2022-10-16T23:20:37;7.88;;;4.93;;
31594;SDS011;18200;48.726;8.892;2022-10-16T23:24:39;8.35;;;4.85;;
31594;SDS011;18200;48.726;8.892;2022-10-16T23:28:40;6.63;;;5.10;;
31594;SDS011;18200;48.726;8.892;2022-10-16T23:32:40;12.43;;;4.90;;
31594;SDS011;18200;48.726;8.892;2022-10-16T23:36:41;8.15;;;4.72;;
31594;SDS011;18200;48.726;8.892;2022-10-16T23:40:43;8.00;;;4.63;;
31594;SDS011;18200;48.726;8.892;2022-10-16T23:44:44;9.30;;;4.10;;
31594;SDS011;18200;48.726;8.892;2022-10-16T23:48:44;5.28;;;3.95;;
31594;SDS011;18200;48.726;8.892;2022-10-16T23:52:45;6.50;;;4.15;;
31594;SDS011;18200;48.726;8.892;2022-10-16T23:56:45;11.82;;;3.80;;
